Rhodhizz, North Carolina
Current Conditions -  °F | °C
As of 11:53 AM on Saturday 25 Oct 2014 (Local Time) from KHKY Reporting Station
Clear Clear  
Wind Chill: 64°   Ceiling: Unl
Heat Index: 64°   Visibility: 10mi
Dew Point: 42°   Wind: 3mph
Humidity: 45%   Direction: 20°NNE
Pressure: 30.04"   Gusts: NA
Location:  35.7739°N, 81.4315°W
Report Text: KHKY 251553Z AUTO 02003KT 10SM CLR 18/06 A3004 RMK AO2 SLP159 T01780056
Loading
Personal Weather Stations






























Interactive Weather Map
Tropical Storm Tracking
New forecast layout! Learn more

10-Day Weather Forecast

Advertisements
Track Severe Weather on mobile